sensor_id;sensor_type;location;lat;lon;timestamp;temperature;humidity
7972;DHT22;4031;49.758;6.120;2023-10-08T00:01:08;11.20;99.90
7972;DHT22;4031;49.758;6.120;2023-10-08T00:03:38;11.30;99.90
7972;DHT22;4031;49.758;6.120;2023-10-08T00:06:06;11.30;99.90
7972;DHT22;4031;49.758;6.120;2023-10-08T00:08:40;11.40;99.90
7972;DHT22;4031;49.758;6.120;2023-10-08T00:11:06;11.40;99.90
7972;DHT22;4031;49.758;6.120;2023-10-08T00:13:33;11.40;99.90
7972;DHT22;4031;49.758;6.120;2023-10-08T00:16:09;11.40;99.90
7972;DHT22;4031;49.758;6.120;2023-10-08T00:18:38;11.30;99.90
7972;DHT22;4031;49.758;6.120;2023-10-08T00:21:07;11.30;99.90
7972;DHT22;4031;49.758;6.120;2023-10-08T00:23:35;11.30;99.90
7972;DHT22;4031;49.758;6.120;2023-10-08T00:26:07;11.50;99.90
7972;DHT22;4031;49.758;6.120;2023-10-08T00:28:34;11.40;99.90
7972;DHT22;4031;49.758;6.120;2023-10-08T00:31:02;11.40;99.90
7972;DHT22;4031;49.758;6.120;2023-10-08T00:33:32;11.30;99.90
7972;DHT22;4031;49.758;6.120;2023-10-08T00:35:58;11.20;99.90
7972;DHT22;4031;49.758;6.120;2023-10-08T00:38:24;11.20;99.90
7972;DHT22;4031;49.758;6.120;2023-10-08T00:40:57;11.20;99.90
7972;DHT22;4031;49.758;6.120;2023-10-08T00:46:00;11.10;99.90
7972;DHT22;4031;49.758;6.120;2023-10-08T00:48:27;11.10;99.90
7972;DHT22;4031;49.758;6.120;2023-10-08T00:50:56;11.00;99.90
7972;DHT22;4031;49.758;6.120;2023-10-08T00:53:40;11.00;99.90
7972;DHT22;4031;49.758;6.120;2023-10-08T00:56:08;10.90;99.90
7972;DHT22;4031;49.758;6.120;2023-10-08T00:58:40;10.80;99.90
7972;DHT22;4031;49.758;6.120;2023-10-08T01:01:06;10.80;99.90
7972;DHT22;4031;49.758;6.120;2023-10-08T01:03:38;10.80;99.90
7972;DHT22;4031;49.758;6.120;2023-10-08T01:06:11;10.60;99.90
7972;DHT22;4031;49.758;6.120;2023-10-08T01:08:37;10.60;99.90
7972;DHT22;4031;49.758;6.120;2023-10-08T01:11:19;10.50;99.90
7972;DHT22;4031;49.758;6.120;2023-10-08T01:14:00;10.40;99.90
7972;DHT22;4031;49.758;6.120;2023-10-08T01:16:26;10.40;99.90
7972;DHT22;4031;49.758;6.120;2023-10-08T01:18:52;10.30;99.90
7972;DHT22;4031;49.758;6.120;2023-10-08T01:21:19;10.40;99.90
7972;DHT22;4031;49.758;6.120;2023-10-08T01:24:05;10.30;99.90
7972;DHT22;4031;49.758;6.120;2023-10-08T01:26:35;10.30;99.90
7972;DHT22;4031;49.758;6.120;2023-10-08T01:29:13;10.30;99.90
7972;DHT22;4031;49.758;6.120;2023-10-08T01:31:48;10.20;99.90
7972;DHT22;4031;49.758;6.120;2023-10-08T01:34:14;10.30;99.90
7972;DHT22;4031;49.758;6.120;2023-10-08T01:36:42;10.30;99.90
7972;DHT22;4031;49.758;6.120;2023-10-08T01:39:10;10.20;99.90
7972;DHT22;4031;49.758;6.120;2023-10-08T01:41:44;10.20;99.90
7972;DHT22;4031;49.758;6.120;2023-10-08T01:44:12;10.10;99.90
7972;DHT22;4031;49.758;6.120;2023-10-08T01:46:38;10.10;99.90
7972;DHT22;4031;49.758;6.120;2023-10-08T01:49:06;10.10;99.90
7972;DHT22;4031;49.758;6.120;2023-10-08T01:51:40;10.00;99.90
7972;DHT22;4031;49.758;6.120;2023-10-08T01:54:13;10.00;99.90
7972;DHT22;4031;49.758;6.120;2023-10-08T01:56:41;10.00;99.90
7972;DHT22;4031;49.758;6.120;2023-10-08T01:59:11;10.00;99.90
7972;DHT22;4031;49.758;6.120;2023-10-08T02:01:40;10.00;99.90
7972;DHT22;4031;49.758;6.120;2023-10-08T02:04:06;9.90;99.90
7972;DHT22;4031;49.758;6.120;2023-10-08T02:06:33;9.90;99.90
7972;DHT22;4031;49.758;6.120;2023-10-08T02:09:00;9.80;99.90
7972;DHT22;4031;49.758;6.120;2023-10-08T02:11:41;9.80;99.90
7972;DHT22;4031;49.758;6.120;2023-10-08T02:14:11;9.80;99.90
7972;DHT22;4031;49.758;6.120;2023-10-08T02:16:39;9.80;99.90
7972;DHT22;4031;49.758;6.120;2023-10-08T02:19:04;9.70;99.90
7972;DHT22;4031;49.758;6.120;2023-10-08T02:21:32;9.70;99.90
7972;DHT22;4031;49.758;6.120;2023-10-08T02:23:58;9.70;99.90
7972;DHT22;4031;49.758;6.120;2023-10-08T02:26:24;9.70;99.90
7972;DHT22;4031;49.758;6.120;2023-10-08T02:28:50;9.70;99.90
7972;DHT22;4031;49.758;6.120;2023-10-08T02:31:16;9.70;99.90
7972;DHT22;4031;49.758;6.120;2023-10-08T02:33:43;9.70;99.90
7972;DHT22;4031;49.758;6.120;2023-10-08T02:36:09;9.70;99.90
7972;DHT22;4031;49.758;6.120;2023-10-08T02:38:35;9.70;99.90
7972;DHT22;4031;49.758;6.120;2023-10-08T02:41:03;9.70;99.90
7972;DHT22;4031;49.758;6.120;2023-10-08T02:43:32;9.70;99.90
7972;DHT22;4031;49.758;6.120;2023-10-08T02:46:02;9.70;99.90
7972;DHT22;4031;49.758;6.120;2023-10-08T02:48:33;9.70;99.90
7972;DHT22;4031;49.758;6.120;2023-10-08T02:51:00;9.60;99.90
7972;DHT22;4031;49.758;6.120;2023-10-08T02:53:37;9.70;99.90
7972;DHT22;4031;49.758;6.120;2023-10-08T02:56:03;9.70;99.90
7972;DHT22;4031;49.758;6.120;2023-10-08T02:58:37;9.70;99.90
7972;DHT22;4031;49.758;6.120;2023-10-08T03:01:04;9.60;99.90
7972;DHT22;4031;49.758;6.120;2023-10-08T03:03:30;9.50;99.90
7972;DHT22;4031;49.758;6.120;2023-10-08T03:05:58;9.60;99.90
7972;DHT22;4031;49.758;6.120;2023-10-08T03:08:24;9.60;99.90
7972;DHT22;4031;49.758;6.120;2023-10-08T03:10:50;9.70;99.90
7972;DHT22;4031;49.758;6.120;2023-10-08T03:13:28;9.80;99.90
7972;DHT22;4031;49.758;6.120;2023-10-08T03:15:54;9.80;99.90
7972;DHT22;4031;49.758;6.120;2023-10-08T03:18:26;9.80;99.90
7972;DHT22;4031;49.758;6.120;2023-10-08T03:21:01;9.70;99.90
7972;DHT22;4031;49.758;6.120;2023-10-08T03:23:30;9.70;99.90
7972;DHT22;4031;49.758;6.120;2023-10-08T03:26:00;9.60;99.90
7972;DHT22;4031;49.758;6.120;2023-10-08T03:28:37;9.50;99.90
7972;DHT22;4031;49.758;6.120;2023-10-08T03:31:04;9.50;99.90
7972;DHT22;4031;49.758;6.120;2023-10-08T03:33:34;9.40;99.90
7972;DHT22;4031;49.758;6.120;2023-10-08T03:36:06;9.40;99.90
7972;DHT22;4031;49.758;6.120;2023-10-08T03:38:59;9.30;99.90
7972;DHT22;4031;49.758;6.120;2023-10-08T03:41:35;9.30;99.90
7972;DHT22;4031;49.758;6.120;2023-10-08T03:44:05;9.20;99.90
7972;DHT22;4031;49.758;6.120;2023-10-08T03:46:38;9.20;99.90
7972;DHT22;4031;49.758;6.120;2023-10-08T03:49:06;9.20;99.90
7972;DHT22;4031;49.758;6.120;2023-10-08T03:51:40;9.20;99.90
7972;DHT22;4031;49.758;6.120;2023-10-08T03:54:07;9.10;99.90
7972;DHT22;4031;49.758;6.120;2023-10-08T03:56:55;9.10;99.90
7972;DHT22;4031;49.758;6.120;2023-10-08T03:59:21;9.10;99.90
7972;DHT22;4031;49.758;6.120;2023-10-08T04:02:00;9.00;99.90
7972;DHT22;4031;49.758;6.120;2023-10-08T04:04:39;9.00;99.90
7972;DHT22;4031;49.758;6.120;2023-10-08T04:07:17;9.00;99.90
7972;DHT22;4031;49.758;6.120;2023-10-08T04:09:52;9.00;99.90
7972;DHT22;4031;49.758;6.120;2023-10-08T04:12:40;8.90;99.90
7972;DHT22;4031;49.758;6.120;2023-10-08T04:15:10;9.00;99.90
7972;DHT22;4031;49.758;6.120;2023-10-08T04:17:38;8.90;99.90
7972;DHT22;4031;49.758;6.120;2023-10-08T04:20:11;8.90;99.90
7972;DHT22;4031;49.758;6.120;2023-10-08T04:22:57;8.90;99.90
7972;DHT22;4031;49.758;6.120;2023-10-08T04:25:27;9.00;99.90
7972;DHT22;4031;49.758;6.120;2023-10-08T04:27:54;9.00;99.90
7972;DHT22;4031;49.758;6.120;2023-10-08T04:30:24;9.00;99.90
7972;DHT22;4031;49.758;6.120;2023-10-08T04:33:05;9.10;99.90
7972;DHT22;4031;49.758;6.120;2023-10-08T04:35:40;9.00;99.90
7972;DHT22;4031;49.758;6.120;2023-10-08T04:38:14;9.00;99.90
7972;DHT22;4031;49.758;6.120;2023-10-08T04:40:44;9.00;99.90
7972;DHT22;4031;49.758;6.120;2023-10-08T04:43:14;9.10;99.90
7972;DHT22;4031;49.758;6.120;2023-10-08T04:45:41;9.20;99.90
7972;DHT22;4031;49.758;6.120;2023-10-08T04:48:07;9.10;99.90
7972;DHT22;4031;49.758;6.120;2023-10-08T04:50:38;9.10;99.90
7972;DHT22;4031;49.758;6.120;2023-10-08T04:53:09;9.10;99.90
7972;DHT22;4031;49.758;6.120;2023-10-08T04:55:35;9.10;99.90
7972;DHT22;4031;49.758;6.120;2023-10-08T04:58:07;9.10;99.90
7972;DHT22;4031;49.758;6.120;2023-10-08T05:00:45;9.10;99.90
7972;DHT22;4031;49.758;6.120;2023-10-08T05:03:20;9.20;99.90
7972;DHT22;4031;49.758;6.120;2023-10-08T05:05:48;9.20;99.90
7972;DHT22;4031;49.758;6.120;2023-10-08T05:08:27;9.20;99.90
7972;DHT22;4031;49.758;6.120;2023-10-08T05:11:10;9.10;99.90
7972;DHT22;4031;49.758;6.120;2023-10-08T05:13:50;9.10;99.90
7972;DHT22;4031;49.758;6.120;2023-10-08T05:16:31;9.10;99.90
7972;DHT22;4031;49.758;6.120;2023-10-08T05:19:13;9.10;99.90
7972;DHT22;4031;49.758;6.120;2023-10-08T05:21:51;9.10;99.90
7972;DHT22;4031;49.758;6.120;2023-10-08T05:24:27;9.00;99.90
7972;DHT22;4031;49.758;6.120;2023-10-08T05:27:04;9.00;99.90
7972;DHT22;4031;49.758;6.120;2023-10-08T05:29:48;8.90;99.90
7972;DHT22;4031;49.758;6.120;2023-10-08T05:32:32;8.80;99.90
7972;DHT22;4031;49.758;6.120;2023-10-08T05:35:11;8.70;99.90
7972;DHT22;4031;49.758;6.120;2023-10-08T05:38:03;8.60;99.90
7972;DHT22;4031;49.758;6.120;2023-10-08T05:40:40;8.60;99.90
7972;DHT22;4031;49.758;6.120;2023-10-08T05:43:36;8.50;99.90
7972;DHT22;4031;49.758;6.120;2023-10-08T05:46:03;8.40;99.90
7972;DHT22;4031;49.758;6.120;2023-10-08T05:49:01;8.40;99.90
7972;DHT22;4031;49.758;6.120;2023-10-08T05:51:37;8.30;99.90
7972;DHT22;4031;49.758;6.120;2023-10-08T05:57:05;8.40;99.90
7972;DHT22;4031;49.758;6.120;2023-10-08T05:59:33;8.40;99.90
7972;DHT22;4031;49.758;6.120;2023-10-08T06:02:29;8.40;99.90
7972;DHT22;4031;49.758;6.120;2023-10-08T06:05:06;8.50;99.90
7972;DHT22;4031;49.758;6.120;2023-10-08T06:07:49;8.50;99.90
7972;DHT22;4031;49.758;6.120;2023-10-08T06:13:07;8.60;99.90
7972;DHT22;4031;49.758;6.120;2023-10-08T06:15:53;8.70;99.90
7972;DHT22;4031;49.758;6.120;2023-10-08T06:18:32;8.70;99.90
7972;DHT22;4031;49.758;6.120;2023-10-08T06:20:59;8.70;99.90
7972;DHT22;4031;49.758;6.120;2023-10-08T06:23:35;8.70;99.90
7972;DHT22;4031;49.758;6.120;2023-10-08T06:26:03;8.80;99.90
7972;DHT22;4031;49.758;6.120;2023-10-08T06:28:35;8.80;99.90
7972;DHT22;4031;49.758;6.120;2023-10-08T06:31:02;8.90;99.90
7972;DHT22;4031;49.758;6.120;2023-10-08T06:33:32;8.90;99.90
7972;DHT22;4031;49.758;6.120;2023-10-08T06:35:59;9.00;99.90
7972;DHT22;4031;49.758;6.120;2023-10-08T06:38:34;9.00;99.90
7972;DHT22;4031;49.758;6.120;2023-10-08T06:41:02;9.10;99.90
7972;DHT22;4031;49.758;6.120;2023-10-08T06:43:38;9.10;99.90
7972;DHT22;4031;49.758;6.120;2023-10-08T06:46:04;9.20;99.90
7972;DHT22;4031;49.758;6.120;2023-10-08T06:48:33;9.20;99.90
7972;DHT22;4031;49.758;6.120;2023-10-08T06:51:00;9.30;99.90
7972;DHT22;4031;49.758;6.120;2023-10-08T06:53:33;9.50;99.90
7972;DHT22;4031;49.758;6.120;2023-10-08T06:56:00;9.60;99.90
7972;DHT22;4031;49.758;6.120;2023-10-08T06:58:30;9.70;99.90
7972;DHT22;4031;49.758;6.120;2023-10-08T07:00:59;9.80;99.90
7972;DHT22;4031;49.758;6.120;2023-10-08T07:03:33;10.00;99.90
7972;DHT22;4031;49.758;6.120;2023-10-08T07:05:59;10.10;99.90
7972;DHT22;4031;49.758;6.120;2023-10-08T07:08:31;10.20;99.90
7972;DHT22;4031;49.758;6.120;2023-10-08T07:11:00;10.40;99.90
7972;DHT22;4031;49.758;6.120;2023-10-08T07:13:30;10.50;99.90
7972;DHT22;4031;49.758;6.120;2023-10-08T07:15:56;10.60;99.90
7972;DHT22;4031;49.758;6.120;2023-10-08T07:18:22;10.70;99.90
7972;DHT22;4031;49.758;6.120;2023-10-08T07:20:55;10.80;99.90
7972;DHT22;4031;49.758;6.120;2023-10-08T07:23:27;10.90;99.90
7972;DHT22;4031;49.758;6.120;2023-10-08T07:26:03;11.00;99.90
7972;DHT22;4031;49.758;6.120;2023-10-08T07:28:39;11.20;99.90
7972;DHT22;4031;49.758;6.120;2023-10-08T07:31:15;11.40;99.90
7972;DHT22;4031;49.758;6.120;2023-10-08T07:33:43;11.60;99.90
7972;DHT22;4031;49.758;6.120;2023-10-08T07:36:10;11.80;99.90
7972;DHT22;4031;49.758;6.120;2023-10-08T07:38:43;12.00;99.90
7972;DHT22;4031;49.758;6.120;2023-10-08T07:41:13;12.20;99.90
7972;DHT22;4031;49.758;6.120;2023-10-08T07:43:43;12.40;99.90
7972;DHT22;4031;49.758;6.120;2023-10-08T07:46:11;12.50;99.90
7972;DHT22;4031;49.758;6.120;2023-10-08T07:48:39;12.70;99.90
7972;DHT22;4031;49.758;6.120;2023-10-08T07:51:08;12.80;99.90
7972;DHT22;4031;49.758;6.120;2023-10-08T07:53:34;12.90;99.90
7972;DHT22;4031;49.758;6.120;2023-10-08T07:56:08;13.10;99.90
7972;DHT22;4031;49.758;6.120;2023-10-08T07:58:34;13.40;99.90
7972;DHT22;4031;49.758;6.120;2023-10-08T08:01:07;13.70;99.90
7972;DHT22;4031;49.758;6.120;2023-10-08T08:03:35;13.90;99.90
7972;DHT22;4031;49.758;6.120;2023-10-08T08:06:06;14.10;99.90
7972;DHT22;4031;49.758;6.120;2023-10-08T08:08:36;14.20;99.90
7972;DHT22;4031;49.758;6.120;2023-10-08T08:11:06;14.60;99.90
7972;DHT22;4031;49.758;6.120;2023-10-08T08:13:40;15.00;99.90
7972;DHT22;4031;49.758;6.120;2023-10-08T08:16:13;15.40;99.90
7972;DHT22;4031;49.758;6.120;2023-10-08T08:18:53;15.80;99.90
7972;DHT22;4031;49.758;6.120;2023-10-08T08:21:22;16.20;99.90
7972;DHT22;4031;49.758;6.120;2023-10-08T08:23:49;16.60;99.90
7972;DHT22;4031;49.758;6.120;2023-10-08T08:26:16;17.20;99.90
7972;DHT22;4031;49.758;6.120;2023-10-08T08:28:59;17.70;99.90
7972;DHT22;4031;49.758;6.120;2023-10-08T08:31:27;18.40;99.90
7972;DHT22;4031;49.758;6.120;2023-10-08T08:33:57;18.90;99.90
7972;DHT22;4031;49.758;6.120;2023-10-08T08:36:28;19.40;99.90
7972;DHT22;4031;49.758;6.120;2023-10-08T08:38:55;20.00;99.90
7972;DHT22;4031;49.758;6.120;2023-10-08T08:41:21;20.70;99.90
7972;DHT22;4031;49.758;6.120;2023-10-08T08:43:52;21.20;99.90
7972;DHT22;4031;49.758;6.120;2023-10-08T08:46:31;21.60;99.90
7972;DHT22;4031;49.758;6.120;2023-10-08T08:49:06;22.30;99.90
7972;DHT22;4031;49.758;6.120;2023-10-08T08:51:36;22.40;99.90
7972;DHT22;4031;49.758;6.120;2023-10-08T08:54:03;22.50;99.90
7972;DHT22;4031;49.758;6.120;2023-10-08T08:56:37;22.90;99.90
7972;DHT22;4031;49.758;6.120;2023-10-08T08:59:07;23.60;99.90
7972;DHT22;4031;49.758;6.120;2023-10-08T09:01:39;23.80;99.90
7972;DHT22;4031;49.758;6.120;2023-10-08T09:04:05;23.90;99.90
7972;DHT22;4031;49.758;6.120;2023-10-08T09:06:35;24.10;99.90
7972;DHT22;4031;49.758;6.120;2023-10-08T09:09:05;24.00;99.90
7972;DHT22;4031;49.758;6.120;2023-10-08T09:11:51;24.00;99.90
7972;DHT22;4031;49.758;6.120;2023-10-08T09:14:25;24.40;99.90
7972;DHT22;4031;49.758;6.120;2023-10-08T09:16:52;24.90;99.90
7972;DHT22;4031;49.758;6.120;2023-10-08T09:19:22;25.50;99.90
7972;DHT22;4031;49.758;6.120;2023-10-08T09:24:41;26.00;99.90
7972;DHT22;4031;49.758;6.120;2023-10-08T09:27:10;26.20;99.90
7972;DHT22;4031;49.758;6.120;2023-10-08T09:29:44;25.80;99.90
7972;DHT22;4031;49.758;6.120;2023-10-08T09:32:12;26.10;99.90
7972;DHT22;4031;49.758;6.120;2023-10-08T09:34:56;26.40;99.90
7972;DHT22;4031;49.758;6.120;2023-10-08T09:37:23;26.70;99.90
7972;DHT22;4031;49.758;6.120;2023-10-08T09:39:49;27.10;99.90
7972;DHT22;4031;49.758;6.120;2023-10-08T09:42:19;27.50;99.90
7972;DHT22;4031;49.758;6.120;2023-10-08T09:44:47;27.60;99.90
7972;DHT22;4031;49.758;6.120;2023-10-08T09:47:17;27.80;99.90
7972;DHT22;4031;49.758;6.120;2023-10-08T09:50:02;28.00;99.90
7972;DHT22;4031;49.758;6.120;2023-10-08T09:52:42;27.80;99.90
7972;DHT22;4031;49.758;6.120;2023-10-08T09:55:17;27.90;99.90
7972;DHT22;4031;49.758;6.120;2023-10-08T09:57:44;28.40;99.90
7972;DHT22;4031;49.758;6.120;2023-10-08T10:00:10;28.40;99.90
7972;DHT22;4031;49.758;6.120;2023-10-08T10:02:41;28.30;99.90
7972;DHT22;4031;49.758;6.120;2023-10-08T10:05:11;28.10;99.90
7972;DHT22;4031;49.758;6.120;2023-10-08T10:07:37;27.90;99.90
7972;DHT22;4031;49.758;6.120;2023-10-08T10:10:29;27.90;99.90
7972;DHT22;4031;49.758;6.120;2023-10-08T10:13:02;28.00;99.90
7972;DHT22;4031;49.758;6.120;2023-10-08T10:15:29;28.00;99.90
7972;DHT22;4031;49.758;6.120;2023-10-08T10:23:45;27.00;99.90
7972;DHT22;4031;49.758;6.120;2023-10-08T10:31:44;27.20;99.90
7972;DHT22;4031;49.758;6.120;2023-10-08T10:34:14;27.60;99.90
7972;DHT22;4031;49.758;6.120;2023-10-08T10:36:49;27.70;99.90
7972;DHT22;4031;49.758;6.120;2023-10-08T10:39:20;27.90;99.90
7972;DHT22;4031;49.758;6.120;2023-10-08T10:41:55;27.90;99.90
7972;DHT22;4031;49.758;6.120;2023-10-08T10:44:30;28.00;99.90
7972;DHT22;4031;49.758;6.120;2023-10-08T10:46:57;28.10;99.90
7972;DHT22;4031;49.758;6.120;2023-10-08T10:49:42;28.10;99.90
7972;DHT22;4031;49.758;6.120;2023-10-08T10:52:26;28.10;99.90
7972;DHT22;4031;49.758;6.120;2023-10-08T10:55:11;28.00;99.90
7972;DHT22;4031;49.758;6.120;2023-10-08T10:57:54;28.20;99.90
7972;DHT22;4031;49.758;6.120;2023-10-08T11:00:22;28.00;99.90
7972;DHT22;4031;49.758;6.120;2023-10-08T11:02:59;27.90;99.90
7972;DHT22;4031;49.758;6.120;2023-10-08T11:05:34;27.70;99.90
7972;DHT22;4031;49.758;6.120;2023-10-08T11:08:06;27.70;99.90
7972;DHT22;4031;49.758;6.120;2023-10-08T11:10:36;27.70;99.90
7972;DHT22;4031;49.758;6.120;2023-10-08T11:13:11;27.90;99.90
7972;DHT22;4031;49.758;6.120;2023-10-08T11:15:41;28.10;99.90
7972;DHT22;4031;49.758;6.120;2023-10-08T11:18:10;28.30;99.90
7972;DHT22;4031;49.758;6.120;2023-10-08T11:20:36;28.00;99.90
7972;DHT22;4031;49.758;6.120;2023-10-08T11:23:09;27.80;99.90
7972;DHT22;4031;49.758;6.120;2023-10-08T11:25:54;27.90;99.90
7972;DHT22;4031;49.758;6.120;2023-10-08T11:28:20;27.80;99.90
7972;DHT22;4031;49.758;6.120;2023-10-08T11:30:47;27.90;99.90
7972;DHT22;4031;49.758;6.120;2023-10-08T11:33:17;27.90;99.90
7972;DHT22;4031;49.758;6.120;2023-10-08T11:36:02;27.80;99.90
7972;DHT22;4031;49.758;6.120;2023-10-08T11:38:41;27.80;99.90
7972;DHT22;4031;49.758;6.120;2023-10-08T11:41:14;27.80;99.90
7972;DHT22;4031;49.758;6.120;2023-10-08T11:43:50;27.70;99.90
7972;DHT22;4031;49.758;6.120;2023-10-08T11:46:27;27.50;99.90
7972;DHT22;4031;49.758;6.120;2023-10-08T11:49:04;27.50;99.90
7972;DHT22;4031;49.758;6.120;2023-10-08T11:51:34;27.40;99.90
7972;DHT22;4031;49.758;6.120;2023-10-08T11:54:03;27.30;99.90
7972;DHT22;4031;49.758;6.120;2023-10-08T11:56:37;27.00;99.90
7972;DHT22;4031;49.758;6.120;2023-10-08T11:59:04;27.20;99.90
7972;DHT22;4031;49.758;6.120;2023-10-08T12:01:38;27.20;99.90
7972;DHT22;4031;49.758;6.120;2023-10-08T12:04:08;27.30;99.90
7972;DHT22;4031;49.758;6.120;2023-10-08T12:06:42;27.40;99.90
7972;DHT22;4031;49.758;6.120;2023-10-08T12:09:18;27.40;99.90
7972;DHT22;4031;49.758;6.120;2023-10-08T12:11:47;27.40;99.90
7972;DHT22;4031;49.758;6.120;2023-10-08T12:14:13;27.10;99.90
7972;DHT22;4031;49.758;6.120;2023-10-08T12:16:41;26.60;99.90
7972;DHT22;4031;49.758;6.120;2023-10-08T12:19:07;26.40;99.90
7972;DHT22;4031;49.758;6.120;2023-10-08T12:21:42;26.40;99.90
7972;DHT22;4031;49.758;6.120;2023-10-08T12:24:11;26.40;99.90
7972;DHT22;4031;49.758;6.120;2023-10-08T12:26:38;26.40;99.90
7972;DHT22;4031;49.758;6.120;2023-10-08T12:29:13;26.40;99.90
7972;DHT22;4031;49.758;6.120;2023-10-08T12:31:40;26.60;99.90
7972;DHT22;4031;49.758;6.120;2023-10-08T12:34:06;26.60;99.90
7972;DHT22;4031;49.758;6.120;2023-10-08T12:36:31;26.80;99.90
7972;DHT22;4031;49.758;6.120;2023-10-08T12:39:02;27.10;99.90
7972;DHT22;4031;49.758;6.120;2023-10-08T12:41:41;27.20;99.90
7972;DHT22;4031;49.758;6.120;2023-10-08T12:44:09;27.20;99.90
7972;DHT22;4031;49.758;6.120;2023-10-08T12:46:35;27.30;99.90
7972;DHT22;4031;49.758;6.120;2023-10-08T12:49:01;27.20;99.90
7972;DHT22;4031;49.758;6.120;2023-10-08T12:51:29;27.20;99.90
7972;DHT22;4031;49.758;6.120;2023-10-08T12:53:59;27.20;99.90
7972;DHT22;4031;49.758;6.120;2023-10-08T12:56:32;27.40;99.90
7972;DHT22;4031;49.758;6.120;2023-10-08T12:59:03;27.60;99.90
7972;DHT22;4031;49.758;6.120;2023-10-08T13:01:35;27.70;99.90
7972;DHT22;4031;49.758;6.120;2023-10-08T13:04:02;27.80;99.90
7972;DHT22;4031;49.758;6.120;2023-10-08T13:06:33;28.00;99.90
7972;DHT22;4031;49.758;6.120;2023-10-08T13:09:04;28.20;99.90
7972;DHT22;4031;49.758;6.120;2023-10-08T13:11:38;28.30;99.90
7972;DHT22;4031;49.758;6.120;2023-10-08T13:14:05;28.50;99.90
7972;DHT22;4031;49.758;6.120;2023-10-08T13:16:31;28.60;99.90
7972;DHT22;4031;49.758;6.120;2023-10-08T13:18:58;28.60;99.90
7972;DHT22;4031;49.758;6.120;2023-10-08T13:21:25;28.50;99.90
7972;DHT22;4031;49.758;6.120;2023-10-08T13:23:52;28.80;99.90
7972;DHT22;4031;49.758;6.120;2023-10-08T13:26:18;28.90;99.90
7972;DHT22;4031;49.758;6.120;2023-10-08T13:28:48;28.90;99.90
7972;DHT22;4031;49.758;6.120;2023-10-08T13:31:13;28.90;99.90
7972;DHT22;4031;49.758;6.120;2023-10-08T13:33:42;28.80;99.90
7972;DHT22;4031;49.758;6.120;2023-10-08T13:36:10;28.80;99.90
7972;DHT22;4031;49.758;6.120;2023-10-08T13:38:38;28.80;99.90
7972;DHT22;4031;49.758;6.120;2023-10-08T13:41:06;28.80;99.90
7972;DHT22;4031;49.758;6.120;2023-10-08T13:43:42;29.00;99.90
7972;DHT22;4031;49.758;6.120;2023-10-08T13:46:12;29.30;99.90
7972;DHT22;4031;49.758;6.120;2023-10-08T13:48:44;29.50;99.90
7972;DHT22;4031;49.758;6.120;2023-10-08T13:51:18;29.70;99.90
7972;DHT22;4031;49.758;6.120;2023-10-08T13:53:55;29.70;99.90
7972;DHT22;4031;49.758;6.120;2023-10-08T13:56:26;29.70;99.90
7972;DHT22;4031;49.758;6.120;2023-10-08T13:58:53;29.60;99.90
7972;DHT22;4031;49.758;6.120;2023-10-08T14:01:33;29.80;99.90
7972;DHT22;4031;49.758;6.120;2023-10-08T14:03:59;30.00;99.90
7972;DHT22;4031;49.758;6.120;2023-10-08T14:06:32;30.00;99.90
7972;DHT22;4031;49.758;6.120;2023-10-08T14:08:58;29.90;99.90
7972;DHT22;4031;49.758;6.120;2023-10-08T14:11:26;29.90;99.90
7972;DHT22;4031;49.758;6.120;2023-10-08T14:13:58;29.80;99.90
7972;DHT22;4031;49.758;6.120;2023-10-08T14:16:27;29.70;99.90
7972;DHT22;4031;49.758;6.120;2023-10-08T14:18:55;29.70;99.90
7972;DHT22;4031;49.758;6.120;2023-10-08T14:21:24;29.60;99.90
7972;DHT22;4031;49.758;6.120;2023-10-08T14:23:53;29.50;99.90
7972;DHT22;4031;49.758;6.120;2023-10-08T14:26:19;29.50;99.90
7972;DHT22;4031;49.758;6.120;2023-10-08T14:28:48;29.50;99.90
7972;DHT22;4031;49.758;6.120;2023-10-08T14:31:24;29.40;99.90
7972;DHT22;4031;49.758;6.120;2023-10-08T14:33:52;29.50;99.90
7972;DHT22;4031;49.758;6.120;2023-10-08T14:36:24;29.50;99.90
7972;DHT22;4031;49.758;6.120;2023-10-08T14:39:09;29.50;99.90
7972;DHT22;4031;49.758;6.120;2023-10-08T14:41:54;29.30;99.90
7972;DHT22;4031;49.758;6.120;2023-10-08T14:44:38;29.20;99.90
7972;DHT22;4031;49.758;6.120;2023-10-08T14:47:04;29.20;99.90
7972;DHT22;4031;49.758;6.120;2023-10-08T14:49:31;28.90;99.90
7972;DHT22;4031;49.758;6.120;2023-10-08T14:51:58;28.80;99.90
7972;DHT22;4031;49.758;6.120;2023-10-08T14:54:24;28.60;99.90
7972;DHT22;4031;49.758;6.120;2023-10-08T14:56:53;28.40;99.90
7972;DHT22;4031;49.758;6.120;2023-10-08T14:59:18;28.30;99.90
7972;DHT22;4031;49.758;6.120;2023-10-08T15:01:46;28.30;99.90
7972;DHT22;4031;49.758;6.120;2023-10-08T15:04:12;28.00;99.90
7972;DHT22;4031;49.758;6.120;2023-10-08T15:06:39;27.60;99.90
7972;DHT22;4031;49.758;6.120;2023-10-08T15:09:07;27.10;99.90
7972;DHT22;4031;49.758;6.120;2023-10-08T15:11:34;26.70;99.90
7972;DHT22;4031;49.758;6.120;2023-10-08T15:14:02;26.40;99.90
7972;DHT22;4031;49.758;6.120;2023-10-08T15:16:36;26.10;99.90
7972;DHT22;4031;49.758;6.120;2023-10-08T15:19:02;25.60;99.90
7972;DHT22;4031;49.758;6.120;2023-10-08T15:21:30;25.20;99.90
7972;DHT22;4031;49.758;6.120;2023-10-08T15:23:59;24.70;99.90
7972;DHT22;4031;49.758;6.120;2023-10-08T15:26:38;24.30;99.90
7972;DHT22;4031;49.758;6.120;2023-10-08T15:29:06;24.10;99.90
7972;DHT22;4031;49.758;6.120;2023-10-08T15:31:32;24.00;99.90
7972;DHT22;4031;49.758;6.120;2023-10-08T15:33:58;24.00;99.90
7972;DHT22;4031;49.758;6.120;2023-10-08T15:36:25;24.20;99.90
7972;DHT22;4031;49.758;6.120;2023-10-08T15:38:52;24.50;99.90
7972;DHT22;4031;49.758;6.120;2023-10-08T15:41:17;24.50;99.90
7972;DHT22;4031;49.758;6.120;2023-10-08T15:43:50;24.50;99.90
7972;DHT22;4031;49.758;6.120;2023-10-08T15:46:20;24.50;99.90
7972;DHT22;4031;49.758;6.120;2023-10-08T15:48:45;24.40;99.90
7972;DHT22;4031;49.758;6.120;2023-10-08T15:51:11;24.20;99.90
7972;DHT22;4031;49.758;6.120;2023-10-08T15:53:37;24.10;99.90
7972;DHT22;4031;49.758;6.120;2023-10-08T15:56:04;23.80;99.90
7972;DHT22;4031;49.758;6.120;2023-10-08T15:58:30;23.50;99.90
7972;DHT22;4031;49.758;6.120;2023-10-08T16:00:55;23.20;99.90
7972;DHT22;4031;49.758;6.120;2023-10-08T16:03:21;22.90;99.90
7972;DHT22;4031;49.758;6.120;2023-10-08T16:05:47;22.50;99.90
7972;DHT22;4031;49.758;6.120;2023-10-08T16:08:14;22.20;99.90
7972;DHT22;4031;49.758;6.120;2023-10-08T16:10:40;21.90;99.90
7972;DHT22;4031;49.758;6.120;2023-10-08T16:13:06;21.60;99.90
7972;DHT22;4031;49.758;6.120;2023-10-08T16:15:32;21.30;99.90
7972;DHT22;4031;49.758;6.120;2023-10-08T16:17:57;21.10;99.90
7972;DHT22;4031;49.758;6.120;2023-10-08T16:20:23;20.90;99.90
7972;DHT22;4031;49.758;6.120;2023-10-08T16:22:51;20.60;99.90
7972;DHT22;4031;49.758;6.120;2023-10-08T16:25:18;20.40;99.90
7972;DHT22;4031;49.758;6.120;2023-10-08T16:27:46;20.10;99.90
7972;DHT22;4031;49.758;6.120;2023-10-08T16:30:24;19.80;99.90
7972;DHT22;4031;49.758;6.120;2023-10-08T16:32:55;19.50;99.90
7972;DHT22;4031;49.758;6.120;2023-10-08T16:35:21;19.30;99.90
7972;DHT22;4031;49.758;6.120;2023-10-08T16:37:51;19.10;99.90
7972;DHT22;4031;49.758;6.120;2023-10-08T16:40:17;18.90;99.90
7972;DHT22;4031;49.758;6.120;2023-10-08T16:42:47;18.60;99.90
7972;DHT22;4031;49.758;6.120;2023-10-08T16:45:13;18.40;99.90
7972;DHT22;4031;49.758;6.120;2023-10-08T16:47:46;18.20;99.90
7972;DHT22;4031;49.758;6.120;2023-10-08T16:50:12;18.00;99.90
7972;DHT22;4031;49.758;6.120;2023-10-08T16:52:39;17.90;99.90
7972;DHT22;4031;49.758;6.120;2023-10-08T16:55:05;17.70;99.90